Time;durP1;ratioP1;P1;durP2;ratioP2;P2;SDS_P1;SDS_P2;PMS_P1;PMS_P2;Temp;Humidity;BMP_temperature;BMP_pressure;BME280_temperature;BME280_humidity;BME280_pressure;Samples;Min_cycle;Max_cycle;Signal;HPM_P1;HPM_P2
2022/04/20 00:02:09;;;;;;;3.43;2.47;;;3.70;1.00;4.70;93698.00;;;;7398074;19;20132;-75
2022/04/20 00:04:36;;;;;;;3.80;2.27;;;3.80;1.00;4.70;93670.00;;;;7397872;19;20168;-75
2022/04/20 00:07:04;;;;;;;4.27;2.27;;;3.80;1.00;4.70;93674.00;;;;7397057;19;20132;-75
2022/04/20 00:09:38;;;;;;;4.30;2.23;;;3.90;1.00;4.70;93665.00;;;;7396341;19;20184;-74
2022/04/20 00:12:06;;;;;;;5.30;2.17;;;3.90;1.00;4.60;93685.00;;;;7396746;19;20153;-74
2022/04/20 00:14:33;;;;;;;2.93;2.20;;;3.80;1.00;4.40;93642.00;;;;7395252;19;20181;-75
2022/04/20 00:17:06;;;;;;;3.60;2.30;;;3.80;1.00;4.40;93666.00;;;;7395771;19;20142;-75
2022/04/20 00:19:33;;;;;;;4.67;2.00;;;3.70;1.00;4.30;93670.00;;;;7395196;19;20148;-75
2022/04/20 00:22:01;;;;;;;3.13;2.23;;;3.60;1.00;4.30;93672.00;;;;7393199;19;20637;-75
2022/04/20 00:24:41;;;;;;;4.97;2.30;;;3.50;1.00;4.20;93679.00;;;;7397862;19;20627;-75
2022/04/20 00:27:08;;;;;;;3.03;2.40;;;3.50;1.00;4.30;93694.00;;;;7397037;19;20185;-75
2022/04/20 00:29:42;;;;;;;3.80;2.40;;;3.40;1.00;4.10;93693.00;;;;7397972;19;20153;-75
2022/04/20 00:32:10;;;;;;;2.97;2.20;;;3.30;1.00;4.00;93679.00;;;;7395365;19;20606;-75
2022/04/20 00:34:40;;;;;;;6.33;2.67;;;3.20;1.00;3.80;93681.00;;;;7395085;19;20152;-75
2022/04/20 00:37:13;;;;;;;3.07;2.37;;;3.10;1.00;3.70;93646.00;;;;7395378;19;20144;-74
2022/04/20 00:39:40;;;;;;;2.70;2.30;;;3.00;1.00;3.60;93685.00;;;;7395144;19;20638;-75
2022/04/20 00:42:08;;;;;;;3.77;2.00;;;2.80;1.00;3.40;93674.00;;;;7398823;19;20148;-75
2022/04/20 00:44:42;;;;;;;3.27;2.30;;;2.70;1.00;3.30;93650.00;;;;7394507;19;20461;-75
2022/04/20 00:47:10;;;;;;;2.93;2.03;;;2.60;1.00;3.30;93653.00;;;;7398582;19;20133;-75
2022/04/20 00:49:40;;;;;;;2.23;1.70;;;2.40;1.00;3.30;93682.00;;;;7392799;19;20143;-75
2022/04/20 00:52:14;;;;;;;6.27;2.30;;;2.40;1.00;3.70;93687.00;;;;7396313;19;20137;-75
2022/04/20 00:54:41;;;;;;;6.93;2.33;;;2.50;6.50;3.70;93679.00;;;;7393735;19;20595;-75
2022/04/20 00:57:08;;;;;;;4.47;2.20;;;2.60;10.20;3.70;93645.00;;;;7392827;19;20611;-75
2022/04/20 00:59:43;;;;;;;7.73;2.63;;;2.70;19.80;3.70;93654.00;;;;7396032;19;20141;-75
2022/04/20 01:02:10;;;;;;;4.07;2.70;;;2.70;43.80;3.60;93677.00;;;;7396019;19;20152;-73
2022/04/20 01:04:38;;;;;;;3.40;2.70;;;2.80;16.20;3.50;93657.00;;;;7390801;19;20490;-71
2022/04/20 01:07:16;;;;;;;4.50;2.47;;;2.70;34.00;3.50;93657.00;;;;7394810;19;20127;-71
2022/04/20 01:09:45;;;;;;;3.87;2.60;;;2.70;53.90;3.40;93651.00;;;;7392236;19;20140;-71
2022/04/20 01:12:19;;;;;;;4.07;2.77;;;2.60;47.60;3.30;93610.00;;;;7396520;19;20177;-71
2022/04/20 01:14:47;;;;;;;5.60;2.70;;;2.50;77.20;3.30;93659.00;;;;7393383;19;20142;-72
2022/04/20 01:17:14;;;;;;;5.23;2.70;;;2.40;84.10;3.20;93656.00;;;;7394717;19;20474;-71
2022/04/20 01:19:47;;;;;;;3.50;2.57;;;2.40;99.90;3.10;93665.00;;;;7397988;19;20153;-71
2022/04/20 01:22:28;;;;;;;4.13;2.63;;;2.30;99.90;3.00;93668.00;;;;7391510;19;20251;-72
2022/04/20 01:25:02;;;;;;;3.70;2.90;;;2.20;99.90;3.00;93651.00;;;;7393928;19;20149;-72
2022/04/20 01:27:29;;;;;;;3.43;2.80;;;2.10;99.90;3.00;93665.00;;;;7394730;19;20626;-72
2022/04/20 01:29:56;;;;;;;3.90;2.90;;;2.10;99.90;3.10;93657.00;;;;7396954;19;20159;-71
2022/04/20 01:32:30;;;;;;;5.83;2.73;;;2.10;99.90;3.10;93660.00;;;;7393106;19;20135;-71
2022/04/20 01:34:57;;;;;;;4.43;2.93;;;2.10;99.90;3.00;93641.00;;;;7393214;19;20128;-72
2022/04/20 01:37:24;;;;;;;4.20;2.70;;;2.10;99.90;2.90;93626.00;;;;7392348;19;20124;-71
2022/04/20 01:39:57;;;;;;;8.07;3.30;;;2.00;99.90;2.90;93638.00;;;;7392759;19;20141;-71
2022/04/20 01:42:25;;;;;;;4.57;3.10;;;2.00;99.90;2.80;93674.00;;;;7393229;19;20167;-71
2022/04/20 01:44:52;;;;;;;5.43;3.40;;;2.00;99.90;2.80;93666.00;;;;7398304;19;20133;-71
2022/04/20 01:47:26;;;;;;;6.83;3.00;;;2.00;99.90;2.80;93659.00;;;;7391325;19;20124;-71
2022/04/20 01:49:53;;;;;;;5.27;3.37;;;2.00;99.90;2.80;93643.00;;;;7392175;19;20144;-71
2022/04/20 01:52:20;;;;;;;3.87;3.20;;;2.00;99.90;2.70;93653.00;;;;7393141;19;20149;-71
2022/04/20 01:54:53;;;;;;;5.00;3.43;;;1.90;99.90;2.70;93626.00;;;;7392913;19;20157;-71
2022/04/20 01:57:20;;;;;;;5.17;4.10;;;1.90;1.00;2.90;93646.00;;;;7388421;19;20602;-71
2022/04/20 01:59:47;;;;;;;5.90;3.80;;;2.00;1.00;3.00;93653.00;;;;7389274;19;20845;-72
2022/04/20 02:02:38;;;;;;;6.23;4.03;;;2.10;1.00;2.90;93654.00;;;;7391902;19;20161;-72
2022/04/20 02:05:18;;;;;;;4.97;3.60;;;2.10;1.00;2.90;93668.00;;;;7394016;19;20184;-71
2022/04/20 02:07:52;;;;;;;6.70;4.00;;;2.10;1.00;2.70;93665.00;;;;7393855;19;20158;-71
2022/04/20 02:10:21;;;;;;;7.13;3.90;;;2.10;1.00;2.80;93672.00;;;;7394057;19;20149;-71
2022/04/20 02:12:48;;;;;;;5.73;3.73;;;2.00;1.00;2.80;93656.00;;;;7395388;19;20148;-71
2022/04/20 02:15:22;;;;;;;6.07;4.37;;;2.00;1.00;2.70;93654.00;;;;7393102;19;20208;-72
2022/04/20 02:17:49;;;;;;;6.27;4.40;;;2.00;1.00;2.60;93670.00;;;;7390996;19;20152;-71
2022/04/20 02:20:16;;;;;;;5.50;4.77;;;1.90;1.00;2.50;93659.00;;;;7394436;19;20131;-71
2022/04/20 02:22:56;;;;;;;5.40;4.33;;;1.90;1.00;2.40;93656.00;;;;7391872;19;20148;-71
2022/04/20 02:25:23;;;;;;;4.90;4.20;;;1.70;1.00;2.40;93629.00;;;;7395637;19;20128;-72
2022/04/20 02:27:56;;;;;;;5.73;4.80;;;1.70;1.00;2.50;93613.00;;;;7392851;19;20140;-72
2022/04/20 02:30:24;;;;;;;5.23;4.47;;;1.60;1.00;2.40;93640.00;;;;7393142;19;20136;-72
2022/04/20 02:32:51;;;;;;;10.73;5.10;;;1.60;1.00;2.50;93669.00;;;;7392347;19;20184;-71
2022/04/20 02:35:27;;;;;;;5.63;4.60;;;1.70;10.30;2.40;93656.00;;;;7392570;19;20154;-71
2022/04/20 02:37:54;;;;;;;9.10;5.13;;;1.70;11.40;2.50;93650.00;;;;7394910;19;20137;-71
2022/04/20 02:40:21;;;;;;;9.33;5.00;;;1.70;30.40;2.40;93622.00;;;;7392081;19;20161;-71
2022/04/20 02:42:57;;;;;;;8.47;5.20;;;1.70;25.30;2.40;93659.00;;;;7393861;19;20141;-71
2022/04/20 02:45:24;;;;;;;6.47;5.30;;;1.60;67.80;2.40;93654.00;;;;7391880;19;20176;-72
2022/04/20 02:47:52;;;;;;;7.43;5.23;;;1.60;94.60;2.30;93647.00;;;;7391028;19;20125;-72
2022/04/20 02:50:25;;;;;;;6.53;5.30;;;1.50;99.90;2.40;93642.00;;;;7391829;19;20196;-72
2022/04/20 02:52:52;;;;;;;6.97;5.23;;;1.50;99.90;2.30;93673.00;;;;7390048;19;20460;-72
2022/04/20 02:55:20;;;;;;;7.87;5.33;;;1.50;99.90;2.30;93660.00;;;;7394765;19;20189;-72
2022/04/20 02:57:54;;;;;;;6.40;5.17;;;1.50;99.90;2.10;93658.00;;;;7393580;19;20193;-71
2022/04/20 03:00:21;;;;;;;5.97;4.80;;;1.40;99.90;1.90;93636.00;;;;7392539;19;20162;-71
2022/04/20 03:02:48;;;;;;;8.97;5.23;;;1.30;99.90;1.90;93616.00;;;;7391897;19;20125;-72
2022/04/20 03:05:21;;;;;;;5.37;4.80;;;1.20;99.90;2.00;93673.00;;;;7390934;19;20128;-71
2022/04/20 03:07:48;;;;;;;7.10;5.93;;;1.20;99.90;2.10;93630.00;;;;7394814;19;20125;-71
2022/04/20 03:10:15;;;;;;;8.93;6.50;;;1.20;99.90;2.10;93639.00;;;;7388371;19;20172;-71
2022/04/20 03:12:50;;;;;;;7.47;5.50;;;1.20;99.90;2.10;93626.00;;;;7394496;19;20200;-72
2022/04/20 03:15:18;;;;;;;7.23;5.20;;;1.30;99.90;2.10;93632.00;;;;7397655;19;20113;-71
2022/04/20 03:17:45;;;;;;;5.80;5.20;;;1.30;99.90;2.10;93654.00;;;;7399662;19;20144;-71
2022/04/20 03:20:19;;;;;;;6.87;5.57;;;1.30;99.90;2.10;93645.00;;;;7398101;19;20588;-71
2022/04/20 03:22:52;;;;;;;6.40;5.37;;;1.30;99.90;2.00;93654.00;;;;7396906;19;20235;-71
2022/04/20 03:25:27;;;;;;;7.70;5.97;;;1.30;99.90;2.10;93679.00;;;;7397196;19;20144;-71
2022/04/20 03:27:54;;;;;;;6.00;4.93;;;1.30;99.90;1.90;93683.00;;;;7398914;19;20155;-71
2022/04/20 03:30:21;;;;;;;5.87;5.27;;;1.30;99.90;1.80;93682.00;;;;7397847;19;20580;-72
2022/04/20 03:32:56;;;;;;;6.03;5.37;;;1.20;99.90;1.70;93684.00;;;;7397428;19;20599;-71
2022/04/20 03:35:23;;;;;;;6.53;5.83;;;1.10;99.90;1.80;93676.00;;;;7394785;19;20143;-72
2022/04/20 03:37:50;;;;;;;7.73;5.50;;;1.00;99.90;1.90;93687.00;;;;7397237;19;20604;-71
2022/04/20 03:40:25;;;;;;;7.20;5.73;;;1.10;1.00;1.70;93668.00;;;;7397788;19;20162;-72
2022/04/20 03:42:52;;;;;;;11.60;6.23;;;1.00;99.90;1.60;93672.00;;;;7396230;19;20166;-71
2022/04/20 03:45:19;;;;;;;6.70;5.60;;;0.90;1.00;1.50;93658.00;;;;7396938;19;20152;-71
2022/04/20 03:47:52;;;;;;;6.27;5.33;;;0.80;1.00;1.50;93655.00;;;;7398477;19;20159;-72
2022/04/20 03:50:19;;;;;;;7.73;5.80;;;0.70;1.00;1.60;93622.00;;;;7396335;19;20223;-71
2022/04/20 03:52:47;;;;;;;7.80;6.20;;;0.70;1.00;1.50;93674.00;;;;7396115;19;20164;-71
2022/04/20 03:55:20;;;;;;;7.63;6.07;;;0.70;1.00;1.60;93641.00;;;;7394966;19;20132;-71
2022/04/20 03:57:48;;;;;;;8.00;5.50;;;0.80;1.00;1.80;93668.00;;;;7396872;19;20204;-71
2022/04/20 04:00:15;;;;;;;7.63;5.40;;;0.90;1.00;1.70;93668.00;;;;7398621;19;20125;-71
2022/04/20 04:02:48;;;;;;;7.63;6.13;;;0.90;1.00;1.50;93674.00;;;;7395397;19;20204;-71
2022/04/20 04:05:16;;;;;;;7.23;5.87;;;0.90;1.00;1.60;93653.00;;;;7396841;19;20722;-71
2022/04/20 04:07:43;;;;;;;7.07;6.00;;;0.80;1.00;1.60;93646.00;;;;7395320;19;20133;-73
2022/04/20 04:10:18;;;;;;;7.50;5.80;;;0.80;1.00;1.30;93632.00;;;;7396988;19;20166;-71
2022/04/20 04:12:45;;;;;;;7.97;6.07;;;0.80;1.00;1.30;93647.00;;;;7398044;19;20246;-72
2022/04/20 04:15:12;;;;;;;6.90;6.00;;;0.70;1.00;1.20;93642.00;;;;7395240;19;20579;-71
2022/04/20 04:17:48;;;;;;;7.13;5.83;;;0.60;1.00;1.10;93659.00;;;;7394944;19;20157;-72
2022/04/20 04:20:16;;;;;;;6.80;6.00;;;;;1.00;93677.00;;;;7398382;19;20153;-71
2022/04/20 04:22:47;;;;;;;9.60;6.00;;;;;0.90;93673.00;;;;7396073;19;20706;-72
2022/04/20 04:25:22;;;;;;;6.17;5.50;;;;;0.90;93673.00;;;;7395866;19;20157;-71
2022/04/20 04:27:49;;;;;;;6.80;5.60;;;;;0.70;93671.00;;;;7397283;19;20599;-72
2022/04/20 04:30:17;;;;;;;6.30;5.40;;;;;0.60;93666.00;;;;7398504;19;20216;-72
2022/04/20 04:32:53;;;;;;;6.63;5.60;;;;;0.60;93678.00;;;;7399703;19;20166;-72
2022/04/20 04:35:21;;;;;;;6.77;6.07;;;;;0.60;93670.00;;;;7397358;19;20133;-71
2022/04/20 04:37:48;;;;;;;6.97;6.27;;;;;0.90;93666.00;;;;7396769;19;20152;-71
2022/04/20 04:40:23;;;;;;;7.90;5.67;;;;;1.10;93666.00;;;;7396985;19;20614;-72
2022/04/20 04:42:51;;;;;;;8.23;5.57;;;;;1.30;93660.00;;;;7392732;19;20161;-72
2022/04/20 04:51:01;;;;;;;6.17;4.97;;;;;1.50;93670.00;;;;7396162;19;20478;-71
2022/04/20 04:53:36;;;;;;;5.50;4.60;;;;;1.50;93678.00;;;;7396777;19;20179;-72
2022/04/20 04:56:10;;;;;;;6.97;4.97;;;;;1.70;93672.00;;;;7396058;19;20151;-72
2022/04/20 04:58:45;;;;;;;6.90;4.77;;;;;1.90;93670.00;;;;7396173;19;20156;-71
2022/04/20 05:01:13;;;;;;;9.20;5.13;;;;;1.80;93671.00;;;;7393167;19;20153;-71
2022/04/20 05:03:40;;;;;;;6.00;4.73;;;;;1.90;93670.00;;;;7397686;19;20167;-72
2022/04/20 05:06:14;;;;;;;4.80;4.20;;;;;1.90;93664.00;;;;7398322;19;20160;-72
2022/04/20 05:08:42;;;;;;;9.67;7.10;;;;;2.10;93671.00;;;;7396257;19;20166;-72
2022/04/20 05:11:09;;;;;;;6.43;5.30;;;;;2.20;93672.00;;;;7394118;19;20152;-71
2022/04/20 05:13:43;;;;;;;8.47;6.97;;;;;2.40;93674.00;;;;7397085;19;20156;-72
2022/04/20 05:16:11;;;;;;;5.27;4.63;;;;;2.60;93677.00;;;;7390140;19;20279;-72
2022/04/20 05:18:38;;;;;;;6.03;4.00;;;;;2.80;93672.00;;;;7396811;19;20507;-72
2022/04/20 05:21:26;;;;;;;4.90;3.87;;;;;3.00;93672.00;;;;7393083;19;20173;-72
2022/04/20 05:24:01;;;;;;;4.70;3.90;;;;;3.20;93664.00;;;;7394896;19;20113;-72
2022/04/20 05:26:35;;;;;;;4.87;3.80;;;;;3.50;93670.00;;;;7393264;19;20121;-72
2022/04/20 05:29:03;;;;;;;4.57;3.37;;;;;3.70;93665.00;;;;7394381;19;20125;-72
2022/04/20 05:31:30;;;;;;;5.53;3.57;;;;;3.90;93669.00;;;;7391988;19;20141;-72
2022/04/20 05:34:05;;;;;;;4.20;3.60;;;;;4.10;93669.00;;;;7393726;19;20632;-72
2022/04/20 05:41:39;;;;;;;3.50;3.20;;;;;4.20;93659.00;;;;7394928;19;20144;-72
2022/04/20 05:42:16;;;;;;;4.83;3.33;;;;;4.40;93667.00;;;;7391848;19;20200;-72
2022/04/20 05:44:50;;;;;;;4.60;3.40;;;;;4.60;93668.00;;;;7391602;19;20177;-72
2022/04/20 05:47:17;;;;;;;3.67;3.37;;;;;4.70;93663.00;;;;7393282;19;20160;-70
2022/04/20 05:49:45;;;;;;;4.37;3.60;;;;;4.90;93663.00;;;;7394112;19;20490;-71
2022/04/20 05:52:19;;;;;;;3.40;3.10;;;;;5.10;93667.00;;;;7395824;19;20166;-71
2022/04/20 05:54:47;;;;;;;5.60;3.30;;;;;5.40;93659.00;;;;7390712;19;20160;-70
2022/04/20 05:57:14;;;;;;;3.67;3.17;;;;;5.50;93665.00;;;;7394659;19;20580;-73
2022/04/20 05:59:49;;;;;;;4.70;2.77;;;;;5.70;93659.00;;;;7395000;19;20171;-70
2022/04/20 06:02:16;;;;;;;3.83;2.77;;;;;5.80;93651.00;;;;7392126;19;20582;-71
2022/04/20 06:04:44;;;;;;;7.83;3.30;;;;;6.10;93650.00;;;;7392333;19;20155;-71
2022/04/20 06:07:19;;;;;;;5.57;3.10;;;;;6.10;93668.00;;;;7391780;19;20204;-72
2022/04/20 06:09:47;;;;;;;6.53;3.33;;;;;6.10;93660.00;;;;7389918;19;20199;-72
2022/04/20 06:12:20;;;;;;;5.33;3.47;;;;;6.10;93673.00;;;;7390317;19;20140;-72
2022/04/20 06:14:54;;;;;;;4.93;3.20;;;;;6.30;93665.00;;;;7391389;19;20136;-72
2022/04/20 06:17:39;;;;;;;6.83;3.53;;;;;6.50;93658.00;;;;7392422;19;20132;-72
2022/04/20 06:20:21;;;;;;;4.50;3.73;;;;;6.50;93657.00;;;;7391033;19;20147;-72
2022/04/20 06:22:56;;;;;;;3.63;3.23;;;;;6.60;93653.00;;;;7390674;19;20140;-72
2022/04/20 06:25:37;;;;;;;4.37;3.60;;;;;6.70;93648.00;;;;7388109;19;20164;-72
2022/04/20 06:28:18;;;;;;;9.23;3.70;;;;;7.50;93656.00;;;;7388186;19;20509;-73
2022/04/20 06:30:56;;;;;;;3.53;3.20;;;;;7.60;93655.00;;;;7391339;19;20149;-72
2022/04/20 06:33:24;;;;;;;4.60;3.87;;;;;7.70;93669.00;;;;7391546;19;20776;-72
2022/04/20 06:35:52;;;;;;;8.70;5.97;;;;;8.10;93656.00;;;;7390893;19;20156;-72
2022/04/20 06:38:27;;;;;;;3.90;3.40;;;6.10;1.00;8.30;93646.00;;;;7388976;19;20132;-72
2022/04/20 06:40:58;;;;;;;3.40;3.10;;;6.10;1.00;8.70;93624.00;;;;7393236;19;20148;-72
2022/04/20 06:43:31;;;;;;;6.87;3.30;;;6.30;1.00;8.60;93649.00;;;;7395189;19;20210;-72
2022/04/20 06:46:05;;;;;;;3.93;3.00;;;6.60;1.00;8.80;93647.00;;;;7391584;19;20159;-72
2022/04/20 06:48:32;;;;;;;4.07;3.27;;;6.80;1.00;8.90;93646.00;;;;7390233;19;20152;-73
2022/04/20 06:51:01;;;;;;;5.97;3.03;;;6.80;1.00;9.10;93652.00;;;;7393371;19;20160;-71
2022/04/20 06:59:16;;;;;;;5.70;3.10;;;7.00;1.00;9.10;93635.00;;;;7390259;19;20220;-70
2022/04/20 07:01:43;;;;;;;4.33;3.00;;;7.00;1.00;9.40;93654.00;;;;7390746;19;20124;-72
2022/04/20 07:04:10;;;;;;;4.00;3.23;;;7.20;1.00;9.40;93657.00;;;;7390839;19;20168;-71
2022/04/20 07:06:43;;;;;;;3.97;3.00;;;7.20;1.00;9.90;93644.00;;;;7392987;19;20160;-71
2022/04/20 07:09:11;;;;;;;3.67;2.90;;;7.40;1.00;10.30;93651.00;;;;7392136;19;20505;-71
2022/04/20 07:11:38;;;;;;;4.53;3.00;;;7.80;1.00;10.70;93651.00;;;;7390114;19;20651;-71
2022/04/20 07:14:12;;;;;;;3.70;3.33;;;7.90;1.00;10.80;93628.00;;;;7382230;19;20615;-72
2022/04/20 07:16:39;;;;;;;2.83;2.53;;;8.10;1.00;10.30;93636.00;;;;7387292;19;20614;-70
2022/04/20 07:19:06;;;;;;;4.20;2.93;;;7.70;1.00;10.10;93620.00;;;;7390232;19;20176;-71
2022/04/20 07:21:53;;;;;;;3.00;2.70;;;7.70;1.00;10.40;93634.00;;;;7389565;19;20159;-71
2022/04/20 07:24:28;;;;;;;5.40;3.10;;;8.00;1.00;10.70;93650.00;;;;7388556;19;20560;-71
2022/04/20 07:27:02;;;;;;;3.53;3.23;;;8.00;1.00;10.90;93635.00;;;;7391016;19;20476;-73
2022/04/20 07:29:29;;;;;;;6.27;3.10;;;8.10;1.00;11.20;93656.00;;;;7387930;19;20149;-71
2022/04/20 07:31:56;;;;;;;4.50;3.00;;;8.30;1.00;11.20;93633.00;;;;7389127;19;20179;-74
2022/04/20 07:34:33;;;;;;;5.63;3.27;;;8.50;1.00;11.70;93642.00;;;;7386035;19;20621;-73
2022/04/20 07:37:01;;;;;;;4.70;3.13;;;8.60;1.00;11.80;93648.00;;;;7390805;19;20133;-71
2022/04/20 07:39:28;;;;;;;4.45;2.75;;;8.80;1.00;11.60;93653.00;;;;7389073;19;20157;-71
2022/04/20 07:42:05;;;;;;;4.75;3.13;;;9.10;1.00;11.30;93665.00;;;;7388708;19;20208;-71
2022/04/20 07:44:32;;;;;;;5.07;3.95;;;9.10;1.00;11.20;93666.00;;;;7392495;19;20133;-72
2022/04/20 07:47:02;;;;;;;5.15;3.15;;;9.20;1.00;11.30;93673.00;;;;7389325;19;20156;-71
2022/04/20 07:52:24;;;;;;;3.97;3.00;;;9.50;1.00;12.30;93650.00;;;;7387739;19;21144;-71
2022/04/20 07:54:59;;;;;;;5.25;3.42;;;9.70;1.00;11.70;93638.00;;;;7387938;19;20155;-71
2022/04/20 07:57:26;;;;;;;5.93;3.40;;;9.50;1.00;12.10;93671.00;;;;7387741;19;20168;-71
2022/04/20 07:59:53;;;;;;;4.18;3.10;;;9.60;1.00;12.60;93677.00;;;;7389608;19;20132;-72
2022/04/20 08:02:27;;;;;;;3.22;2.92;;;9.70;1.00;12.40;93651.00;;;;7394918;19;20467;-72
2022/04/20 08:04:55;;;;;;;8.05;3.53;;;10.00;1.00;12.40;93655.00;;;;7399632;19;20605;-71
2022/04/20 08:07:22;;;;;;;4.18;3.25;;;10.30;1.00;12.00;93652.00;;;;7396823;19;20161;-71
2022/04/20 08:09:56;;;;;;;3.53;2.75;;;10.00;1.00;12.00;93658.00;;;;7396980;19;20647;-70
2022/04/20 08:12:24;;;;;;;7.13;3.38;;;10.10;1.00;12.60;93675.00;;;;7396958;19;20156;-71
2022/04/20 08:14:51;;;;;;;15.75;3.65;;;10.30;1.00;12.90;93653.00;;;;7396258;19;20614;-71
2022/04/20 08:17:25;;;;;;;4.43;3.22;;;10.40;1.00;12.40;93680.00;;;;7392996;19;20479;-70
2022/04/20 08:19:53;;;;;;;7.40;3.33;;;10.20;1.00;12.60;93645.00;;;;7395548;19;20121;-71
2022/04/20 08:22:22;;;;;;;21.70;4.00;;;10.00;1.00;12.80;93674.00;;;;7400238;19;20172;-71
2022/04/20 08:24:56;;;;;;;10.32;3.47;;;10.00;1.00;12.70;93652.00;;;;7400087;19;20893;-73
2022/04/20 08:27:23;;;;;;;3.58;3.08;;;10.00;1.00;12.40;93658.00;;;;7394623;19;20136;-71
2022/04/20 08:29:51;;;;;;;5.18;3.47;;;10.40;1.00;12.60;93670.00;;;;7398728;19;20152;-72
2022/04/20 08:32:30;;;;;;;4.15;3.10;;;10.60;99.90;13.00;93658.00;;;;7395863;19;20480;-71
2022/04/20 08:34:58;;;;;;;3.28;2.92;;;10.60;1.00;13.20;93682.00;;;;7398118;19;20149;-73
2022/04/20 08:37:28;;;;;;;7.10;2.88;;;10.70;99.90;13.50;93671.00;;;;7392507;19;20624;-73
2022/04/20 08:40:02;;;;;;;6.47;3.10;;;11.00;99.90;13.30;93604.00;;;;7395065;19;20150;-72
2022/04/20 08:42:34;;;;;;;4.07;2.95;;;11.00;99.90;13.10;93666.00;;;;7394047;19;20622;-72
2022/04/20 08:45:04;;;;;;;4.05;2.88;;;10.90;99.90;13.50;93677.00;;;;7396001;19;20132;-71
2022/04/20 08:47:39;;;;;;;6.30;2.67;;;10.90;99.90;13.50;93687.00;;;;7395901;19;20133;-71
2022/04/20 08:50:09;;;;;;;3.85;2.80;;;11.00;99.90;14.10;93678.00;;;;7395368;19;20159;-73
2022/04/20 08:52:37;;;;;;;4.75;2.70;;;11.20;99.90;14.50;93641.00;;;;7394805;19;20614;-73
2022/04/20 08:55:12;;;;;;;3.42;2.65;;;11.60;99.90;15.20;93677.00;;;;7393314;19;20145;-71
2022/04/20 08:57:43;;;;;;;5.32;2.65;;;11.70;99.90;15.20;93680.00;;;;7393399;19;20157;-72
2022/04/20 09:00:25;;;;;;;4.47;2.95;;;12.10;99.90;15.40;93689.00;;;;7394701;19;20170;-73
2022/04/20 09:03:03;;;;;;;6.18;2.90;;;12.10;99.90;15.10;93677.00;;;;7395002;19;20149;-71
2022/04/20 09:05:34;;;;;;;3.38;2.90;;;12.20;99.90;13.90;93694.00;;;;7394094;19;20216;-74
2022/04/20 09:08:12;;;;;;;3.95;3.10;;;11.90;99.90;14.60;93676.00;;;;7396802;19;20587;-72
2022/04/20 09:10:40;;;;;;;4.32;2.88;;;12.00;99.90;15.10;93675.00;;;;7390224;19;20145;-71
2022/04/20 09:13:10;;;;;;;6.95;2.92;;;12.10;99.90;14.80;93676.00;;;;7393470;19;20153;-73
2022/04/20 09:15:45;;;;;;;3.58;2.90;;;12.40;99.90;14.80;93680.00;;;;7394026;19;20159;-73
2022/04/20 09:18:12;;;;;;;12.38;3.15;;;12.60;99.90;15.30;93675.00;;;;7393789;19;20618;-72
2022/04/20 09:20:40;;;;;;;5.25;3.45;;;12.40;99.90;15.10;93668.00;;;;7394134;19;20663;-72
2022/04/20 09:23:29;;;;;;;7.70;3.50;;;12.40;99.90;14.00;93673.00;;;;7394219;19;20869;-72
2022/04/20 09:25:56;;;;;;;9.75;2.97;;;11.90;99.90;14.50;93666.00;;;;7394440;19;20145;-71
2022/04/20 09:28:30;;;;;;;3.30;3.00;;;11.80;99.90;15.10;93666.00;;;;7395087;19;20583;-71
2022/04/20 09:30:57;;;;;;;13.48;3.70;;;12.40;99.90;15.10;93666.00;;;;7396241;19;20619;-73
2022/04/20 09:33:49;;;;;;;5.00;2.80;;;12.40;99.90;14.80;93655.00;;;;7393380;19;20137;-72
2022/04/20 09:36:45;;;;;;;11.50;3.15;;;12.70;99.90;14.90;93667.00;;;;7395777;19;20691;-72
2022/04/20 09:39:13;;;;;;;3.65;2.90;;;12.30;99.90;14.50;93682.00;;;;7394243;19;20153;-73
2022/04/20 09:42:02;;;;;;;3.47;2.50;;;12.00;99.90;14.50;93660.00;;;;7396013;19;20121;-71
2022/04/20 09:44:30;;;;;;;4.45;2.70;;;12.10;99.90;14.90;93649.00;;;;7393906;19;20133;-72
2022/04/20 09:50:02;;;;;;;3.03;2.75;;;12.40;99.90;15.30;93670.00;;;;7394432;19;20156;-72
2022/04/20 09:52:41;;;;;;;6.00;4.43;;;12.90;99.90;15.30;93680.00;;;;7392936;19;20156;-72
2022/04/20 09:55:25;;;;;;;3.90;3.10;;;13.20;99.90;15.70;93652.00;;;;7395899;19;20145;-72
2022/04/20 09:58:18;;;;;;;7.13;4.13;;;13.30;99.90;15.40;93665.00;;;;7391557;19;20148;-71
2022/04/20 10:00:52;;;;;;;3.72;3.17;;;13.40;99.90;15.70;93655.00;;;;7394772;19;20132;-71
2022/04/20 10:03:29;;;;;;;6.80;3.40;;;12.80;99.90;15.70;93683.00;;;;7393913;19;20203;-72
2022/04/20 10:06:02;;;;;;;5.70;4.07;;;13.10;99.90;14.80;93668.00;;;;7397778;19;20623;-70
2022/04/20 10:08:36;;;;;;;4.72;3.00;;;12.70;99.90;15.00;93666.00;;;;7395838;19;20133;-72
2022/04/20 10:11:05;;;;;;;5.60;2.63;;;12.50;99.90;15.30;93656.00;;;;7388691;19;20169;-72
2022/04/20 10:13:32;;;;;;;4.43;3.83;;;12.50;99.90;14.70;93647.00;;;;7393546;19;20637;-73
2022/04/20 10:16:11;;;;;;;11.57;3.60;;;12.40;99.90;15.30;93679.00;;;;7395540;19;20137;-72
2022/04/20 10:18:40;;;;;;;4.03;3.05;;;13.00;99.90;15.20;93651.00;;;;7396540;19;20145;-71
2022/04/20 10:21:18;;;;;;;5.47;3.17;;;13.10;99.90;15.90;93634.00;;;;7393094;19;20148;-73
2022/04/20 10:23:57;;;;;;;5.72;2.75;;;13.30;99.90;15.90;93667.00;;;;7393482;19;20156;-72
2022/04/20 10:26:37;;;;;;;5.45;2.88;;;13.50;99.90;15.40;93654.00;;;;7392241;19;20611;-73
2022/04/20 10:29:32;;;;;;;5.25;3.25;;;13.70;99.90;15.40;93664.00;;;;7387456;19;20191;-73
2022/04/20 10:32:22;;;;;;;4.55;3.08;;;13.80;99.90;15.20;93648.00;;;;7390577;19;20141;-72
2022/04/20 10:34:50;;;;;;;5.65;3.25;;;13.70;99.90;15.60;93634.00;;;;7389879;19;20317;-73
2022/04/20 10:37:31;;;;;;;7.70;3.10;;;13.90;99.90;15.70;93631.00;;;;7388047;19;20243;-73
2022/04/20 10:40:16;;;;;;;3.78;3.03;;;14.20;99.90;16.40;93636.00;;;;7386664;19;20232;-74
2022/04/20 10:43:22;;;;;;;4.07;2.80;;;14.50;99.90;16.80;93643.00;;;;7389153;19;20155;-74
2022/04/20 10:46:16;;;;;;;4.90;2.83;;;15.10;99.90;17.30;93637.00;;;;7388090;19;20148;-74
2022/04/20 10:49:02;;;;;;;3.80;3.20;;;15.60;99.90;16.80;93643.00;;;;7386022;19;20149;-72
2022/04/20 10:51:30;;;;;;;4.82;3.20;;;15.70;99.90;16.90;93643.00;;;;7386383;19;20163;-73
2022/04/20 10:54:29;;;;;;;3.70;3.40;;;15.40;99.90;16.90;93635.00;;;;7385287;19;20129;-72
2022/04/20 10:57:00;;;;;;;6.45;3.28;;;15.20;99.90;17.00;93638.00;;;;7383314;19;20170;-73
2022/04/20 10:59:34;;;;;;;5.35;3.75;;;15.20;99.90;17.30;93591.00;;;;7386555;19;20135;-72
2022/04/20 11:02:06;;;;;;;4.43;4.03;;;15.10;99.90;17.80;93636.00;;;;7388405;19;20148;-73
2022/04/20 11:04:37;;;;;;;6.65;3.97;;;15.40;99.90;17.40;93620.00;;;;7387463;19;20153;-74
2022/04/20 11:07:30;;;;;;;6.53;3.30;;;15.70;99.90;17.00;93639.00;;;;7385675;19;20249;-73
2022/04/20 11:10:02;;;;;;;5.68;3.45;;;15.40;99.90;16.80;93642.00;;;;7388611;19;20184;-73
2022/04/20 11:18:45;;;;;;;4.25;3.45;;;15.70;99.90;17.70;93604.00;;;;7386603;19;20164;-74
2022/04/20 11:21:32;;;;;;;5.22;3.60;;;15.70;99.90;17.00;93614.00;;;;7388372;19;20148;-73
2022/04/20 11:24:24;;;;;;;5.53;3.45;;;15.50;99.90;16.20;93621.00;;;;7385867;19;20189;-73
2022/04/20 11:26:55;;;;;;;4.47;3.42;;;15.50;99.90;16.10;93639.00;;;;7387102;19;20145;-72
2022/04/20 11:29:30;;;;;;;4.90;3.80;;;14.90;99.90;16.60;93584.00;;;;7386572;19;20164;-72
2022/04/20 11:32:04;;;;;;;6.65;3.50;;;15.00;99.90;16.80;93604.00;;;;7384142;19;20157;-74
2022/04/20 11:34:41;;;;;;;5.43;3.58;;;14.90;99.90;16.90;93603.00;;;;7389229;19;20147;-73
2022/04/20 11:37:09;;;;;;;7.28;3.72;;;14.70;99.90;17.50;93594.00;;;;7393159;19;20156;-73
2022/04/20 11:39:38;;;;;;;5.20;3.30;;;14.90;99.90;17.60;93589.00;;;;7392320;19;20626;-74
2022/04/20 11:42:12;;;;;;;4.53;3.40;;;15.30;99.90;17.80;93590.00;;;;7390777;19;20132;-73
2022/04/20 11:44:42;;;;;;;3.50;3.20;;;15.30;99.90;18.10;93598.00;;;;7392550;19;20153;-73
2022/04/20 11:47:12;;;;;;;7.15;3.58;;;15.70;99.90;18.10;93600.00;;;;7391608;19;20156;-74
2022/04/20 11:49:49;;;;;;;4.95;3.55;;;16.20;99.90;18.80;93610.00;;;;7391047;19;20607;-73
2022/04/20 11:52:18;;;;;;;4.07;3.50;;;16.30;99.90;18.90;93613.00;;;;7394262;19;20680;-73
2022/04/20 11:54:47;;;;;;;4.45;3.22;;;16.50;99.90;19.20;93610.00;;;;7391434;19;20167;-74
2022/04/20 11:57:21;;;;;;;7.88;3.00;;;16.70;99.90;19.40;93603.00;;;;7392344;19;20136;-73
2022/04/20 11:59:50;;;;;;;3.80;2.72;;;16.80;99.90;18.30;93619.00;;;;7391520;19;20560;-74
2022/04/20 12:02:19;;;;;;;4.75;3.05;;;16.50;99.90;18.10;93617.00;;;;7393443;19;20630;-74
2022/04/20 12:05:08;;;;;;;5.28;3.25;;;16.70;99.90;19.50;93584.00;;;;7393767;19;20541;-75
2022/04/20 12:07:37;;;;;;;6.30;3.15;;;16.90;99.90;19.10;93610.00;;;;7392788;19;20587;-73
2022/04/20 12:10:11;;;;;;;3.28;2.95;;;17.00;99.90;19.00;93605.00;;;;7388268;19;20176;-73